createdAt,value
2022-10-06T00:04:09.941Z,17.51
2022-10-06T00:09:40.795Z,17.68
2022-10-06T00:15:12.514Z,17.71
2022-10-06T00:20:44.181Z,17.77
2022-10-06T00:26:20.329Z,17.64
2022-10-06T00:31:52.021Z,17.62
2022-10-06T00:37:23.774Z,17.69
2022-10-06T00:42:55.435Z,17.58
2022-10-06T00:48:27.464Z,17.62
2022-10-06T00:53:58.879Z,17.6
2022-10-06T00:59:30.801Z,17.55
2022-10-06T01:05:02.949Z,17.29
2022-10-06T01:10:34.102Z,17.22
2022-10-06T01:16:05.833Z,17.06
2022-10-06T01:21:37.593Z,17.1
2022-10-06T01:27:13.594Z,17.3
2022-10-06T01:32:45.345Z,17.16
2022-10-06T01:38:17.062Z,17.16
2022-10-06T01:43:48.772Z,17.13
2022-10-06T01:49:20.545Z,17.09
2022-10-06T01:54:52.237Z,17.02
2022-10-06T02:00:23.953Z,16.89
2022-10-06T02:05:55.696Z,16.79
2022-10-06T02:11:27.453Z,16.69
2022-10-06T02:16:59.138Z,16.52
2022-10-06T02:22:30.917Z,16.6
2022-10-06T02:28:06.997Z,16.64
2022-10-06T02:33:38.661Z,16.58
2022-10-06T02:39:10.478Z,16.51
2022-10-06T02:44:42.093Z,16.42
2022-10-06T02:50:13.801Z,16.46
2022-10-06T02:55:45.542Z,16.5
2022-10-06T03:01:17.276Z,16.42
2022-10-06T03:06:49.005Z,16.35
2022-10-06T03:12:20.693Z,16.36
2022-10-06T03:17:52.411Z,16.53
2022-10-06T03:23:24.306Z,16.45
2022-10-06T03:29:00.786Z,16.41
2022-10-06T03:34:31.974Z,16.25
2022-10-06T03:40:03.799Z,16.17
2022-10-06T03:45:35.430Z,16.18
2022-10-06T03:51:07.201Z,16.19
2022-10-06T03:56:38.872Z,16.26
2022-10-06T04:02:10.640Z,16.3
2022-10-06T04:07:42.357Z,16.28
2022-10-06T04:13:14.093Z,16.37
2022-10-06T04:18:45.825Z,16.17
2022-10-06T04:24:17.517Z,16.38
2022-10-06T04:29:55.593Z,16.66
2022-10-06T04:35:27.315Z,16.73
2022-10-06T04:40:59.042Z,16.77
2022-10-06T04:46:42.519Z,16.83
2022-10-06T04:52:02.533Z,16.73
2022-10-06T04:57:34.262Z,16.96
2022-10-06T05:03:05.956Z,17.06
2022-10-06T05:08:37.735Z,17.15
2022-10-06T05:14:09.424Z,17.17
2022-10-06T05:19:41.133Z,17.1
2022-10-06T05:25:12.815Z,17.02
2022-10-06T05:30:48.950Z,17.1
2022-10-06T05:36:20.636Z,17.04
2022-10-06T05:41:52.368Z,17.04
2022-10-06T05:47:24.120Z,17.0
2022-10-06T05:52:55.825Z,17.0
2022-10-06T05:58:27.543Z,17.03
2022-10-06T06:03:59.285Z,16.93
2022-10-06T06:09:30.990Z,17.23
2022-10-06T06:15:02.762Z,17.28
2022-10-06T06:20:34.411Z,17.28
2022-10-06T06:26:06.215Z,17.42
2022-10-06T06:31:42.344Z,17.26
2022-10-06T06:37:15.341Z,17.28
2022-10-06T06:42:48.241Z,17.16
2022-10-06T06:48:17.466Z,17.35
2022-10-06T06:53:49.197Z,17.35
2022-10-06T06:59:20.915Z,17.4
2022-10-06T07:04:52.734Z,17.18
2022-10-06T07:10:24.347Z,17.09
2022-10-06T07:15:56.252Z,17.28
2022-10-06T07:21:27.831Z,17.25
2022-10-06T07:26:59.584Z,17.24
2022-10-06T07:32:35.634Z,17.36
2022-10-06T07:38:07.377Z,17.03
2022-10-06T07:43:39.054Z,17.27
2022-10-06T07:49:10.770Z,17.16
2022-10-06T07:54:42.517Z,17.25
2022-10-06T08:00:14.226Z,17.54
2022-10-06T08:05:46.013Z,17.6
2022-10-06T08:11:17.658Z,17.65
2022-10-06T08:16:49.399Z,17.53
2022-10-06T08:22:27.964Z,17.34
2022-10-06T08:27:59.752Z,17.66
2022-10-06T08:33:35.801Z,17.4
2022-10-06T08:39:07.529Z,17.17
2022-10-06T08:44:39.239Z,17.13
2022-10-06T08:50:11.005Z,16.94
2022-10-06T08:55:42.687Z,17.15
2022-10-06T09:01:14.609Z,17.16
2022-10-06T09:06:46.122Z,17.26
2022-10-06T09:12:17.918Z,17.5
2022-10-06T09:17:49.663Z,17.65
2022-10-06T09:23:21.354Z,17.36
2022-10-06T09:28:53.110Z,17.5
2022-10-06T09:34:29.219Z,17.67
2022-10-06T09:40:00.943Z,17.54
2022-10-06T09:45:32.591Z,17.52
2022-10-06T09:51:04.496Z,17.42
2022-10-06T09:56:36.067Z,17.6
2022-10-06T10:02:07.814Z,17.91
2022-10-06T10:07:39.502Z,17.75
2022-10-06T10:13:11.217Z,18.06
2022-10-06T10:18:42.924Z,18.01
2022-10-06T10:24:14.661Z,18.0
2022-10-06T10:29:46.330Z,18.1
2022-10-06T10:35:22.502Z,18.51
2022-10-06T10:40:54.222Z,18.66
2022-10-06T10:46:26.009Z,18.65
2022-10-06T10:51:57.789Z,18.97
2022-10-06T10:57:29.430Z,18.98
2022-10-06T11:03:01.109Z,18.88
2022-10-06T11:08:32.858Z,19.41
2022-10-06T11:14:04.582Z,19.34
2022-10-06T11:19:36.318Z,19.74
2022-10-06T11:30:39.754Z,20.14
2022-10-06T11:36:15.820Z,20.48
2022-10-06T11:41:47.565Z,20.24
2022-10-06T11:47:19.722Z,20.61
2022-10-06T11:52:51.039Z,20.49
2022-10-06T11:58:41.173Z,20.42
2022-10-06T12:03:54.421Z,20.33
2022-10-06T12:09:26.288Z,19.45
2022-10-06T12:20:29.623Z,20.36
2022-10-06T12:26:01.360Z,20.0
2022-10-06T12:31:33.094Z,20.15
2022-10-06T12:37:09.198Z,20.03
2022-10-06T12:42:40.930Z,20.01
2022-10-06T12:48:12.694Z,19.7
2022-10-06T12:53:51.245Z,19.89
2022-10-06T12:59:23.004Z,19.77
2022-10-06T13:04:54.714Z,20.16
2022-10-06T13:10:26.435Z,19.71
2022-10-06T13:15:58.157Z,19.89
2022-10-06T13:21:29.916Z,19.43
2022-10-06T13:27:01.618Z,19.21
2022-10-06T13:32:33.416Z,19.57
2022-10-06T13:38:09.431Z,19.69
2022-10-06T13:43:41.137Z,20.1
2022-10-06T13:49:12.874Z,20.16
2022-10-06T13:54:44.602Z,20.48
2022-10-06T14:00:16.359Z,20.44
2022-10-06T14:05:48.025Z,19.86
2022-10-06T14:11:19.750Z,20.29
2022-10-06T14:16:51.505Z,20.1
2022-10-06T14:22:23.215Z,20.02
2022-10-06T14:27:54.925Z,19.85
2022-10-06T14:33:26.708Z,19.85
2022-10-06T14:39:04.809Z,19.65
2022-10-06T14:44:36.550Z,19.81
2022-10-06T14:50:08.222Z,19.73
2022-10-06T14:55:39.931Z,19.36
2022-10-06T15:01:11.621Z,19.49
2022-10-06T15:06:43.513Z,19.92
2022-10-06T15:12:15.101Z,19.69
2022-10-06T15:17:46.842Z,19.93
2022-10-06T15:23:18.586Z,20.01
2022-10-06T15:28:50.309Z,20.08
2022-10-06T15:34:22.039Z,19.73
2022-10-06T15:39:58.165Z,19.66
2022-10-06T15:45:29.877Z,19.65
2022-10-06T15:51:01.576Z,19.6
2022-10-06T15:56:33.329Z,19.74
2022-10-06T16:02:05.094Z,19.77
2022-10-06T16:07:36.759Z,19.72
2022-10-06T16:13:08.500Z,19.64
2022-10-06T16:18:40.175Z,19.45
2022-10-06T16:24:11.923Z,19.29
2022-10-06T16:29:43.664Z,19.11
2022-10-06T16:35:18.283Z,18.98
2022-10-06T16:40:51.503Z,18.83
2022-10-06T16:46:23.325Z,18.77
2022-10-06T16:51:55.011Z,18.69
2022-10-06T16:57:26.661Z,18.7
2022-10-06T17:02:58.598Z,18.7
2022-10-06T17:08:30.101Z,18.66
2022-10-06T17:14:01.827Z,18.67
2022-10-06T17:19:33.536Z,18.64
2022-10-06T17:25:05.296Z,18.61
2022-10-06T17:30:36.976Z,18.59
2022-10-06T17:36:08.787Z,18.51
2022-10-06T17:41:46.846Z,18.39
2022-10-06T17:47:18.595Z,18.37
2022-10-06T17:52:50.243Z,18.31
2022-10-06T17:58:22.062Z,18.27
2022-10-06T18:03:53.738Z,18.19
2022-10-06T18:09:25.472Z,18.2
2022-10-06T18:14:57.153Z,18.11
2022-10-06T18:20:28.894Z,18.09
2022-10-06T18:26:00.605Z,18.0
2022-10-06T18:31:32.468Z,17.99
2022-10-06T18:37:04.051Z,17.85
2022-10-06T18:42:40.167Z,17.66
2022-10-06T18:48:11.880Z,17.5
2022-10-06T18:53:43.649Z,17.32
2022-10-06T18:59:15.312Z,17.07
2022-10-06T19:04:47.076Z,16.89
2022-10-06T19:10:18.785Z,16.75
2022-10-06T19:15:50.481Z,16.61
2022-10-06T19:21:22.302Z,16.49
2022-10-06T19:26:53.967Z,16.46
2022-10-06T19:32:26.517Z,16.32
2022-10-06T19:37:58.259Z,16.2
2022-10-06T19:43:34.386Z,16.07
2022-10-06T19:49:06.126Z,16.15
2022-10-06T19:54:37.874Z,16.15
2022-10-06T20:00:09.576Z,16.07
2022-10-06T20:05:41.335Z,16.14
2022-10-06T20:11:13.008Z,16.08
2022-10-06T20:16:45.129Z,15.97
2022-10-06T20:22:16.422Z,15.9
2022-10-06T20:27:48.206Z,15.81
2022-10-06T20:33:19.905Z,15.76
2022-10-06T20:38:51.677Z,15.6
2022-10-06T20:44:27.749Z,15.55
2022-10-06T20:49:59.510Z,15.57
2022-10-06T20:55:31.239Z,15.61
2022-10-06T21:01:02.998Z,15.59
2022-10-06T21:06:34.702Z,15.57
2022-10-06T21:12:06.372Z,15.61
2022-10-06T21:17:38.165Z,15.61
2022-10-06T21:23:09.899Z,15.64
2022-10-06T21:28:41.584Z,15.71
2022-10-06T21:34:13.289Z,15.7
2022-10-06T21:39:45.036Z,15.71
2022-10-06T21:45:24.209Z,15.71
2022-10-06T21:50:52.906Z,15.66
2022-10-06T21:56:24.590Z,15.69
2022-10-06T22:01:56.432Z,15.61
2022-10-06T22:07:28.121Z,15.61
2022-10-06T22:12:59.764Z,15.62
2022-10-06T22:18:31.437Z,15.56
2022-10-06T22:24:03.217Z,15.51
2022-10-06T22:29:34.941Z,15.53
2022-10-06T22:35:06.640Z,15.52
2022-10-06T22:40:38.367Z,15.51
2022-10-06T22:46:16.777Z,15.55
2022-10-06T22:51:48.242Z,15.47
2022-10-06T22:57:19.986Z,15.4
2022-10-06T23:02:51.704Z,15.35
2022-10-06T23:08:23.423Z,15.33
2022-10-06T23:13:55.170Z,15.33
2022-10-06T23:19:26.880Z,15.31
2022-10-06T23:24:58.532Z,15.21
2022-10-06T23:30:30.320Z,15.24
2022-10-06T23:36:01.996Z,15.15
2022-10-06T23:41:33.728Z,15.12
2022-10-06T23:47:09.856Z,15.12
2022-10-06T23:52:41.600Z,15.16
2022-10-06T23:58:13.348Z,15.19
